MSC Luisa — H9XU — position and weather

sailwx.info

Track history (hours):
 
Tides and Currents Weather Stations Pressure Air Temp Water Temp Dewpoint Dewpoint Depression Visibility Wind Speed Wind Dir Waves Ship Positions

MSC Luisa

Last reported at 2016-Jul-15 22:29 UTC. Time now 2016-Jul-25 20:07 UTC.
Position N 31°18' W 079°60'.
Warning: this ship's position is 9 days out of date.

Length 300 m; draft 10.8 m.

Type: Ship. MMSI: 355308000.

Date/timePositionNaut miles runAvg speedWind from/ knotsBaromVisibWave heightAir tempDewpointWater temp
2016-Jul-15 22:29N 31°18' W 079°60'8 8.1
2016-Jul-15 21:33N 31°25' W 080°02'8 7.8
2016-Jul-15 20:32N 31°33' W 080°05'7 7.5
2016-Jul-15 19:33N 31°40' W 080°07'7 7.5
2016-Jul-15 18:33N 31°47' W 080°09'8 7.5
2016-Jul-15 17:33N 31°52' W 080°17'9 8.7
2016-Jul-15 16:33N 31°54' W 080°26'9 9.0
2016-Jul-15 15:33N 31°56' W 080°37'1010.4
2016-Jul-15 14:33N 32°00' W 080°48'1111.4
2016-Jul-15 13:33N 32°06' W 080°60'7 6.7
2016-Jul-15 12:34N 32°07' W 081°07'1 1.2
2016-Jul-15 11:33N 32°08' W 081°08'0 0.0
2016-Jul-15 10:33N 32°08' W 081°08'0 0.0
2016-Jul-15 09:33N 32°08' W 081°08'0 0.0
2016-Jul-15 08:33N 32°08' W 081°08'0 0.0
2016-Jul-15 07:33N 32°08' W 081°08'0 0.0
2016-Jul-15 06:33N 32°08' W 081°08'0 0.0
2016-Jul-15 05:33N 32°08' W 081°08'0 0.0
2016-Jul-15 04:33N 32°08' W 081°08'0 0.0
2016-Jul-15 03:33N 32°08' W 081°08'0 0.0
2016-Jul-15 02:33N 32°08' W 081°08'0 0.0
2016-Jul-15 01:33N 32°08' W 081°08'0 0.0
2016-Jul-15 00:33N 32°08' W 081°08'0 0.0
2016-Jul-14 23:33N 32°08' W 081°08'0 0.0
2016-Jul-14 22:33N 32°08' W 081°08'0 0.0
2016-Jul-14 21:33N 32°08' W 081°08'0 0.2
2016-Jul-14 20:33N 32°08' W 081°08'9 6.1
2016-Jul-14 19:09N 32°05' W 080°59'813.4
2016-Jul-14 18:33N 32°02' W 080°50'1312.7
2016-Jul-14 17:33N 31°57' W 080°36'1010.4
2016-Jul-14 16:34N 31°57' W 080°24'1312.7
2016-Jul-14 15:33N 32°01' W 080°10'2013.5
2016-Jul-14 14:06N 32°08' W 079°48'1013.8
2016-Jul-14 13:22N 32°12' W 079°37'1213.8
2016-Jul-14 12:30N 32°16' W 079°24'2914.5
2016-Jul-14 10:28N 32°28' W 078°52'1415.2
2016-Jul-14 09:33N 32°35' W 078°38'1414.5
2016-Jul-14 08:34N 32°43' W 078°24'1514.9
2016-Jul-14 07:34N 32°51' W 078°09'1514.8
2016-Jul-14 06:34N 32°59' W 077°54'1514.8
2016-Jul-14 05:34N 33°07' W 077°39'1514.5
2016-Jul-14 04:34N 33°15' W 077°25'1514.9
2016-Jul-14 03:34N 33°23' W 077°10'1514.8
2016-Jul-14 02:34N 33°32' W 076°55'1515.2
2016-Jul-14 01:34N 33°43' W 076°43'1514.8
2016-Jul-14 00:34N 33°53' W 076°30'1515.3
2016-Jul-13 23:34N 34°04' W 076°18'1615.9
2016-Jul-13 22:34N 34°16' W 076°04'1615.8
2016-Jul-13 21:33N 34°27' W 075°51'1615.8
2016-Jul-13 20:33N 34°38' W 075°37'12712.7
2016-Jul-13 10:33N 36°46' W 075°40'5613.8
2016-Jul-13 06:30N 37°38' W 076°06'1615.9
2016-Jul-13 05:30N 37°53' W 076°09'1616.6
2016-Jul-13 04:32N 38°09' W 076°14'1616.4
2016-Jul-13 03:33N 38°24' W 076°21'1515.3
2016-Jul-13 02:34N 38°39' W 076°25'1615.9
2016-Jul-13 01:34N 38°55' W 076°24'1413.7
2016-Jul-13 00:33N 39°08' W 076°24'9 8.8
2016-Jul-12 23:33N 39°15' W 076°32'0 0.5
2016-Jul-12 22:33N 39°15' W 076°33'0 0.0
2016-Jul-12 21:29N 39°15' W 076°33'0 0.0
2016-Jul-12 20:32N 39°15' W 076°33'0 0.0
2016-Jul-12 19:32N 39°15' W 076°33'0 0.0
2016-Jul-12 18:31N 39°15' W 076°33'0 0.0
2016-Jul-12 17:31N 39°15' W 076°33'0 0.0
2016-Jul-12 16:30N 39°15' W 076°33'0 0.0
2016-Jul-12 15:33N 39°15' W 076°33'0 0.0
2016-Jul-12 14:32N 39°15' W 076°33'0 0.0
2016-Jul-12 13:32N 39°15' W 076°33'0 0.0
2016-Jul-12 12:32N 39°15' W 076°33'0 0.0
2016-Jul-12 11:31N 39°15' W 076°33'0 0.4
2016-Jul-12 10:33N 39°15' W 076°32'7 7.0
2016-Jul-12 09:33N 39°10' W 076°26'1312.6
2016-Jul-12 08:34N 38°58' W 076°23'1817.9
2016-Jul-12 07:33N 38°40' W 076°25'1716.6
2016-Jul-12 06:34N 38°24' W 076°20'1717.3
2016-Jul-12 05:33N 38°07' W 076°13'3316.2
2016-Jul-12 03:32N 37°35' W 076°04'3115.6
2016-Jul-12 01:33N 37°04' W 076°06'1413.9
2016-Jul-12 00:33N 36°54' W 075°54'9 9.1
2016-Jul-11 23:33N 36°49' W 075°45'179 5.3
2016-Jul-10 13:33N 39°26' W 073°54'10 8.2
2016-Jul-10 12:21N 39°36' W 073°53'6 8.0
2016-Jul-10 11:33N 39°42' W 073°52'9 8.1
2016-Jul-10 10:28N 39°51' W 073°51'9 8.3
2016-Jul-10 09:25N 39°60' W 073°51'32 8.2
2016-Jul-10 05:30N 40°31' W 073°59'1010.5
2016-Jul-10 04:33N 40°39' W 074°07'3 2.7
2016-Jul-10 03:24N 40°41' W 074°09'0 0.0
2016-Jul-10 02:27N 40°41' W 074°09'0 0.0
2016-Jul-10 01:24N 40°41' W 074°09'0 0.0
2016-Jul-10 00:17N 40°41' W 074°09'0 0.0
2016-Jul-09 23:29N 40°41' W 074°09'0 0.0
2016-Jul-09 20:27N 40°41' W 074°09'0 0.0
2016-Jul-09 18:30N 40°41' W 074°09'0 0.0
2016-Jul-09 16:17N 40°41' W 074°09'0 0.0
2016-Jul-09 15:10N 40°41' W 074°09'0 0.0
2016-Jul-09 14:28N 40°41' W 074°09'0 0.0
2016-Jul-09 13:18N 40°41' W 074°09'0 0.0
2016-Jul-09 12:33N 40°41' W 074°09'0 0.0
2016-Jul-09 11:30N 40°41' W 074°09'0 0.0
2016-Jul-09 10:29N 40°41' W 074°09'0 0.0
2016-Jul-09 09:32N 40°41' W 074°09'0 0.0
2016-Jul-09 08:28N 40°41' W 074°09'0 0.0
2016-Jul-09 06:18N 40°41' W 074°09'4 2.5
2016-Jul-09 04:33N 40°39' W 074°04'5813.1
2016-Jul-09 00:07N 39°44' W 073°41'20116.9
2016-Jul-08 12:15N 36°51' W 075°52'1115.5
2016-Jul-08 11:33N 36°57' W 076°03'1412.2
2016-Jul-08 10:25N 36°57' W 076°20'4 1.9
2016-Jul-08 08:16N 36°53' W 076°21'0 0.0
2016-Jul-07 22:29N 36°53' W 076°21'0 0.0
2016-Jul-07 21:31N 36°53' W 076°21'1 1.4
2016-Jul-07 20:34N 36°54' W 076°20'9 8.9
2016-Jul-07 19:31N 36°60' W 076°11'1515.1
2016-Jul-07 18:33N 36°55' W 075°54'16813.7
2016-Jul-07 06:18N 34°07' W 075°40'1216.8
2016-Jul-07 05:33N 33°56' W 075°47'1716.8
2016-Jul-07 04:33N 33°41' W 075°57'41217.0
2016-Jul-06 04:25N 27°35' W 079°36'1921.3
2016-Jul-06 03:32N 27°17' W 079°42'2121.3
2016-Jul-06 02:33N 26°57' W 079°48'2120.7
2016-Jul-06 01:33N 26°37' W 079°54'2120.7
2016-Jul-06 00:33N 26°17' W 079°60'1313.0
2016-Jul-05 23:33N 26°05' W 080°07'1 1.3
2016-Jul-05 22:33N 26°04' W 080°07'  
Track history (hours):
 
Tides and Currents Weather Stations Pressure Air Temp Water Temp Dewpoint Dewpoint Depression Visibility Wind Speed Wind Dir Waves Ship Positions

MSC Luisa

Last reported at 2016-Jul-15 22:29 UTC. Time now 2016-Jul-25 20:07 UTC.
Position N 31°18' W 079°60'.
Warning: this ship's position is 9 days out of date.

Length 300 m; draft 10.8 m.

Type: Ship. MMSI: 355308000.

Date/timePositionNaut miles runAvg speedWind from/ knotsBaromVisibWave heightAir tempDewpointWater temp
2016-Jul-15 22:29N 31°18' W 079°60'8 8.1
2016-Jul-15 21:33N 31°25' W 080°02'8 7.8
2016-Jul-15 20:32N 31°33' W 080°05'7 7.5
2016-Jul-15 19:33N 31°40' W 080°07'7 7.5
2016-Jul-15 18:33N 31°47' W 080°09'8 7.5
2016-Jul-15 17:33N 31°52' W 080°17'9 8.7
2016-Jul-15 16:33N 31°54' W 080°26'9 9.0
2016-Jul-15 15:33N 31°56' W 080°37'1010.4
2016-Jul-15 14:33N 32°00' W 080°48'1111.4
2016-Jul-15 13:33N 32°06' W 080°60'7 6.7
2016-Jul-15 12:34N 32°07' W 081°07'1 1.2
2016-Jul-15 11:33N 32°08' W 081°08'0 0.0
2016-Jul-15 10:33N 32°08' W 081°08'0 0.0
2016-Jul-15 09:33N 32°08' W 081°08'0 0.0
2016-Jul-15 08:33N 32°08' W 081°08'0 0.0
2016-Jul-15 07:33N 32°08' W 081°08'0 0.0
2016-Jul-15 06:33N 32°08' W 081°08'0 0.0
2016-Jul-15 05:33N 32°08' W 081°08'0 0.0
2016-Jul-15 04:33N 32°08' W 081°08'0 0.0
2016-Jul-15 03:33N 32°08' W 081°08'0 0.0
2016-Jul-15 02:33N 32°08' W 081°08'0 0.0
2016-Jul-15 01:33N 32°08' W 081°08'0 0.0
2016-Jul-15 00:33N 32°08' W 081°08'0 0.0
2016-Jul-14 23:33N 32°08' W 081°08'0 0.0
2016-Jul-14 22:33N 32°08' W 081°08'0 0.0
2016-Jul-14 21:33N 32°08' W 081°08'0 0.2
2016-Jul-14 20:33N 32°08' W 081°08'9 6.1
2016-Jul-14 19:09N 32°05' W 080°59'813.4
2016-Jul-14 18:33N 32°02' W 080°50'1312.7
2016-Jul-14 17:33N 31°57' W 080°36'1010.4
2016-Jul-14 16:34N 31°57' W 080°24'1312.7
2016-Jul-14 15:33N 32°01' W 080°10'2013.5
2016-Jul-14 14:06N 32°08' W 079°48'1013.8
2016-Jul-14 13:22N 32°12' W 079°37'1213.8
2016-Jul-14 12:30N 32°16' W 079°24'2914.5
2016-Jul-14 10:28N 32°28' W 078°52'1415.2
2016-Jul-14 09:33N 32°35' W 078°38'1414.5
2016-Jul-14 08:34N 32°43' W 078°24'1514.9
2016-Jul-14 07:34N 32°51' W 078°09'1514.8
2016-Jul-14 06:34N 32°59' W 077°54'1514.8
2016-Jul-14 05:34N 33°07' W 077°39'1514.5
2016-Jul-14 04:34N 33°15' W 077°25'1514.9
2016-Jul-14 03:34N 33°23' W 077°10'1514.8
2016-Jul-14 02:34N 33°32' W 076°55'1515.2
2016-Jul-14 01:34N 33°43' W 076°43'1514.8
2016-Jul-14 00:34N 33°53' W 076°30'1515.3
2016-Jul-13 23:34N 34°04' W 076°18'1615.9
2016-Jul-13 22:34N 34°16' W 076°04'1615.8
2016-Jul-13 21:33N 34°27' W 075°51'1615.8
2016-Jul-13 20:33N 34°38' W 075°37'12712.7
2016-Jul-13 10:33N 36°46' W 075°40'5613.8
2016-Jul-13 06:30N 37°38' W 076°06'1615.9
2016-Jul-13 05:30N 37°53' W 076°09'1616.6
2016-Jul-13 04:32N 38°09' W 076°14'1616.4
2016-Jul-13 03:33N 38°24' W 076°21'1515.3
2016-Jul-13 02:34N 38°39' W 076°25'1615.9
2016-Jul-13 01:34N 38°55' W 076°24'1413.7
2016-Jul-13 00:33N 39°08' W 076°24'9 8.8
2016-Jul-12 23:33N 39°15' W 076°32'0 0.5
2016-Jul-12 22:33N 39°15' W 076°33'0 0.0
2016-Jul-12 21:29N 39°15' W 076°33'0 0.0
2016-Jul-12 20:32N 39°15' W 076°33'0 0.0
2016-Jul-12 19:32N 39°15' W 076°33'0 0.0
2016-Jul-12 18:31N 39°15' W 076°33'0 0.0
2016-Jul-12 17:31N 39°15' W 076°33'0 0.0
2016-Jul-12 16:30N 39°15' W 076°33'0 0.0
2016-Jul-12 15:33N 39°15' W 076°33'0 0.0
2016-Jul-12 14:32N 39°15' W 076°33'0 0.0
2016-Jul-12 13:32N 39°15' W 076°33'0 0.0
2016-Jul-12 12:32N 39°15' W 076°33'0 0.0
2016-Jul-12 11:31N 39°15' W 076°33'0 0.4
2016-Jul-12 10:33N 39°15' W 076°32'7 7.0
2016-Jul-12 09:33N 39°10' W 076°26'1312.6
2016-Jul-12 08:34N 38°58' W 076°23'1817.9
2016-Jul-12 07:33N 38°40' W 076°25'1716.6
2016-Jul-12 06:34N 38°24' W 076°20'1717.3
2016-Jul-12 05:33N 38°07' W 076°13'3316.2
2016-Jul-12 03:32N 37°35' W 076°04'3115.6
2016-Jul-12 01:33N 37°04' W 076°06'1413.9
2016-Jul-12 00:33N 36°54' W 075°54'9 9.1
2016-Jul-11 23:33N 36°49' W 075°45'179 5.3
2016-Jul-10 13:33N 39°26' W 073°54'10 8.2
2016-Jul-10 12:21N 39°36' W 073°53'6 8.0
2016-Jul-10 11:33N 39°42' W 073°52'9 8.1
2016-Jul-10 10:28N 39°51' W 073°51'9 8.3
2016-Jul-10 09:25N 39°60' W 073°51'32 8.2
2016-Jul-10 05:30N 40°31' W 073°59'1010.5
2016-Jul-10 04:33N 40°39' W 074°07'3 2.7
2016-Jul-10 03:24N 40°41' W 074°09'0 0.0
2016-Jul-10 02:27N 40°41' W 074°09'0 0.0
2016-Jul-10 01:24N 40°41' W 074°09'0 0.0
2016-Jul-10 00:17N 40°41' W 074°09'0 0.0
2016-Jul-09 23:29N 40°41' W 074°09'0 0.0
2016-Jul-09 20:27N 40°41' W 074°09'0 0.0
2016-Jul-09 18:30N 40°41' W 074°09'0 0.0
2016-Jul-09 16:17N 40°41' W 074°09'0 0.0
2016-Jul-09 15:10N 40°41' W 074°09'0 0.0
2016-Jul-09 14:28N 40°41' W 074°09'0 0.0
2016-Jul-09 13:18N 40°41' W 074°09'0 0.0
2016-Jul-09 12:33N 40°41' W 074°09'0 0.0
2016-Jul-09 11:30N 40°41' W 074°09'0 0.0
2016-Jul-09 10:29N 40°41' W 074°09'0 0.0
2016-Jul-09 09:32N 40°41' W 074°09'0 0.0
2016-Jul-09 08:28N 40°41' W 074°09'0 0.0
2016-Jul-09 06:18N 40°41' W 074°09'4 2.5
2016-Jul-09 04:33N 40°39' W 074°04'5813.1
2016-Jul-09 00:07N 39°44' W 073°41'20116.9
2016-Jul-08 12:15N 36°51' W 075°52'1115.5
2016-Jul-08 11:33N 36°57' W 076°03'1412.2
2016-Jul-08 10:25N 36°57' W 076°20'4 1.9
2016-Jul-08 08:16N 36°53' W 076°21'0 0.0
2016-Jul-07 22:29N 36°53' W 076°21'0 0.0
2016-Jul-07 21:31N 36°53' W 076°21'1 1.4
2016-Jul-07 20:34N 36°54' W 076°20'9 8.9
2016-Jul-07 19:31N 36°60' W 076°11'1515.1
2016-Jul-07 18:33N 36°55' W 075°54'16813.7
2016-Jul-07 06:18N 34°07' W 075°40'1216.8
2016-Jul-07 05:33N 33°56' W 075°47'1716.8
2016-Jul-07 04:33N 33°41' W 075°57'41217.0
2016-Jul-06 04:25N 27°35' W 079°36'1921.3
2016-Jul-06 03:32N 27°17' W 079°42'2121.3
2016-Jul-06 02:33N 26°57' W 079°48'2120.7
2016-Jul-06 01:33N 26°37' W 079°54'2120.7
2016-Jul-06 00:33N 26°17' W 079°60'1313.0
2016-Jul-05 23:33N 26°05' W 080°07'1 1.3
2016-Jul-05 22:33N 26°04' W 080°07'  

Dump ship's entire track history